Time;durP1;ratioP1;P1;durP2;ratioP2;P2;SDS_P1;SDS_P2;PMS_P1;PMS_P2;Temp;Humidity;BMP_temperature;BMP_pressure;BME280_temperature;BME280_humidity;BME280_pressure;Samples;Min_cycle;Max_cycle;Signal;HPM_P1;HPM_P2
2021/11/07 00:01:40;;;;;;;6.18;5.03;;;;;;;;;;5095300;28;20181;-70
2021/11/07 00:04:17;;;;;;;8.23;5.80;;;;;;;;;;5095174;28;20621;-68
2021/11/07 00:06:51;;;;;;;10.45;6.05;;;;;;;;;;5094704;28;20442;-68
2021/11/07 00:09:23;;;;;;;9.60;6.10;;;;;;;;;;5095137;28;20205;-68
2021/11/07 00:11:55;;;;;;;5.63;4.60;;;;;;;;;;5095882;28;20212;-69
2021/11/07 00:14:23;;;;;;;8.13;6.35;;;;;;;;;;5095401;28;20271;-70
2021/11/07 00:16:50;;;;;;;6.93;5.83;;;;;;;;;;5095007;28;20208;-70
2021/11/07 00:19:25;;;;;;;15.95;6.78;;;;;;;;;;5094941;28;20454;-69
2021/11/07 00:21:59;;;;;;;14.25;7.43;;;;;;;;;;5095079;28;20600;-69
2021/11/07 00:24:32;;;;;;;7.57;6.82;;;;;;;;;;5095078;28;20198;-68
2021/11/07 00:27:06;;;;;;;10.52;7.95;;;;;;;;;;5094529;28;20280;-68
2021/11/07 00:29:35;;;;;;;13.20;7.22;;;;;;;;;;5095536;28;20188;-68
2021/11/07 00:32:08;;;;;;;10.15;7.45;;;;;;;;;;5095487;28;20203;-68
2021/11/07 00:37:25;;;;;;;8.52;7.72;;;;;;;;;;5094449;28;20634;-68
2021/11/07 00:40:05;;;;;;;10.70;9.10;;;;;;;;;;5094336;28;20189;-68
2021/11/07 00:42:41;;;;;;;6.50;5.88;;;;;;;;;;5094422;28;20540;-69
2021/11/07 00:45:21;;;;;;;9.75;8.75;;;;;;;;;;5094881;28;20195;-68
2021/11/07 00:47:57;;;;;;;11.35;8.90;;;;;;;;;;5094764;28;20270;-68
2021/11/07 00:50:28;;;;;;;10.85;8.95;;;;;;;;;;5094116;28;20185;-70
2021/11/07 00:53:11;;;;;;;8.85;7.95;;;;;;;;;;5094074;28;20229;-69
2021/11/07 00:55:42;;;;;;;15.43;9.30;;;;;;;;;;5094707;28;20212;-68
2021/11/07 00:58:14;;;;;;;11.40;9.07;;;;;;;;;;5095003;28;20186;-69
2021/11/07 01:00:49;;;;;;;10.98;7.13;;;;;;;;;;5093937;28;20654;-68
2021/11/07 01:03:18;;;;;;;13.32;10.43;;;;;;;;;;5094346;28;20302;-68
2021/11/07 01:05:45;;;;;;;10.07;9.07;;;;;;;;;;5094097;28;20297;-68
2021/11/07 01:08:13;;;;;;;11.00;9.90;;;;;;;;;;5093808;28;20203;-69
2021/11/07 01:10:40;;;;;;;13.80;10.60;;;;;;;;;;5094296;28;20198;-68
2021/11/07 01:13:07;;;;;;;12.30;10.15;;;;;;;;;;5094050;28;20206;-68
2021/11/07 01:15:37;;;;;;;11.35;10.15;;;;;;;;;;5094074;28;20196;-68
2021/11/07 01:18:04;;;;;;;11.25;10.07;;;;;;;;;;5094136;28;20196;-68
2021/11/07 01:20:32;;;;;;;16.67;10.57;;;;;;;;;;5094474;28;20196;-68
2021/11/07 01:23:08;;;;;;;13.10;11.45;;;;;;;;;;5093819;28;20586;-68
2021/11/07 01:25:40;;;;;;;8.52;7.82;;;;;;;;;;5094719;28;20188;-68
2021/11/07 01:28:08;;;;;;;11.80;10.60;;;;;;;;;;5094449;28;20188;-68
2021/11/07 01:30:42;;;;;;;11.00;9.90;;;;;;;;;;5093827;28;20594;-69
2021/11/07 01:33:14;;;;;;;12.10;10.00;;;;;;;;;;5093493;28;20192;-69
2021/11/07 01:35:45;;;;;;;10.73;9.73;;;;;;;;;;5093518;28;20180;-68
2021/11/07 01:38:15;;;;;;;12.07;10.05;;;;;;;;;;5093791;28;20194;-68
2021/11/07 01:40:46;;;;;;;15.50;10.38;;;;;;;;;;5093415;28;20194;-68
2021/11/07 01:43:15;;;;;;;10.93;10.00;;;;;;;;;;5093451;28;20208;-69
2021/11/07 01:45:47;;;;;;;10.73;9.70;;;;;;;;;;5094388;28;20197;-69
2021/11/07 01:48:16;;;;;;;12.90;11.60;;;;;;;;;;5093775;28;20423;-69
2021/11/07 01:50:46;;;;;;;11.63;10.53;;;;;;;;;;5093588;28;20280;-68
2021/11/07 01:53:20;;;;;;;11.77;10.38;;;;;;;;;;5093197;28;20571;-68
2021/11/07 01:55:48;;;;;;;10.68;9.50;;;;;;;;;;5093762;28;20220;-68
2021/11/07 01:58:15;;;;;;;9.90;8.90;;;;;;;;;;5093690;28;20197;-68
2021/11/07 02:00:44;;;;;;;12.65;10.55;;;;;;;;;;5093541;28;20196;-68
2021/11/07 02:03:11;;;;;;;8.95;8.13;;;;;;;;;;5093902;28;20221;-68
2021/11/07 02:05:39;;;;;;;11.82;10.63;;;;;;;;;;5093148;28;20650;-68
2021/11/07 02:08:07;;;;;;;11.32;10.20;;;;;;;;;;5093454;28;20197;-68
2021/11/07 02:10:34;;;;;;;10.77;9.60;;;;;;;;;;5092877;28;20207;-69
2021/11/07 02:13:02;;;;;;;11.43;9.20;;;;;;;;;;5093334;28;20200;-68
2021/11/07 02:15:29;;;;;;;8.10;7.30;;;;;;;;;;5093208;28;20194;-68
2021/11/07 02:17:58;;;;;;;10.65;9.57;;;;;;;;;;5093214;28;20224;-68
2021/11/07 02:20:29;;;;;;;11.93;10.82;;;;;;;;;;5093475;28;20274;-68
2021/11/07 02:22:58;;;;;;;11.90;10.70;;;;;;;;;;5093767;28;20293;-68
2021/11/07 02:25:25;;;;;;;12.32;9.75;;;;;;;;;;5093167;28;20291;-68
2021/11/07 02:27:52;;;;;;;10.05;9.05;;;;;;;;;;5093646;28;20239;-68
2021/11/07 02:30:20;;;;;;;13.02;11.65;;;;;;;;;;5096920;28;20197;-69
2021/11/07 02:32:48;;;;;;;10.82;9.93;;;;;;;;;;5096775;28;20201;-68
2021/11/07 02:35:16;;;;;;;12.77;11.52;;;;;;;;;;5096810;28;20196;-69
2021/11/07 02:37:45;;;;;;;10.85;9.75;;;;;;;;;;5096783;28;20289;-68
2021/11/07 02:40:14;;;;;;;6.95;6.35;;;;;;;;;;5096726;28;20206;-68
2021/11/07 02:42:43;;;;;;;12.10;10.93;;;;;;;;;;5096310;28;20727;-69
2021/11/07 02:45:12;;;;;;;11.57;10.57;;;;;;;;;;5096772;28;20203;-68
2021/11/07 02:47:39;;;;;;;10.50;9.40;;;;;;;;;;5097155;28;20477;-68
2021/11/07 02:50:07;;;;;;;13.55;12.30;;;;;;;;;;5096964;28;20531;-68
2021/11/07 02:52:34;;;;;;;10.02;9.02;;;;;;;;;;5096641;28;20700;-68
2021/11/07 02:55:03;;;;;;;10.38;9.38;;;;;;;;;;5096535;28;20621;-68
2021/11/07 02:57:31;;;;;;;12.20;9.70;;;;;;;;;;5096860;28;20191;-69
2021/11/07 02:59:59;;;;;;;11.18;10.18;;;;;;;;;;5096668;28;20607;-69
2021/11/07 03:02:27;;;;;;;10.55;9.55;;;;;;;;;;5096228;28;20204;-69
2021/11/07 03:04:55;;;;;;;9.35;8.27;;;;;;;;;;5096274;28;20193;-69
2021/11/07 03:07:23;;;;;;;7.90;7.25;;;;;;;;;;5096626;28;20201;-69
2021/11/07 03:09:50;;;;;;;11.10;9.95;;;;;;;;;;5096222;28;20559;-68
2021/11/07 03:12:18;;;;;;;12.43;11.10;;;;;;;;;;5095910;28;20281;-68
2021/11/07 03:14:48;;;;;;;11.77;10.68;;;;;;;;;;5096423;28;20210;-68
2021/11/07 03:17:17;;;;;;;12.95;10.65;;;;;;;;;;5096023;28;20256;-68
2021/11/07 03:19:44;;;;;;;15.25;12.40;;;;;;;;;;5095663;28;20288;-68
2021/11/07 03:22:12;;;;;;;13.00;10.17;;;;;;;;;;5095850;28;20295;-68
2021/11/07 03:24:41;;;;;;;10.77;9.67;;;;;;;;;;5095521;28;20479;-68
2021/11/07 03:27:13;;;;;;;10.55;9.02;;;;;;;;;;5095803;28;20443;-67
2021/11/07 03:29:42;;;;;;;13.50;9.95;;;;;;;;;;5095804;28;20185;-69
2021/11/07 03:32:15;;;;;;;9.53;7.97;;;;;;;;;;5096110;28;20288;-69
2021/11/07 03:34:45;;;;;;;12.20;10.90;;;;;;;;;;5095720;28;20435;-69
2021/11/07 03:37:14;;;;;;;11.68;8.35;;;;;;;;;;5095319;28;20462;-68
2021/11/07 03:39:41;;;;;;;13.18;10.98;;;;;;;;;;5094972;28;20559;-69
2021/11/07 03:42:10;;;;;;;8.50;7.80;;;;;;;;;;5095225;28;20316;-68
2021/11/07 03:44:38;;;;;;;12.27;10.57;;;;;;;;;;5096131;28;20216;-68
2021/11/07 03:47:06;;;;;;;12.27;10.98;;;;;;;;;;5095595;28;20243;-68
2021/11/07 03:49:34;;;;;;;12.88;10.15;;;;;;;;;;5095398;28;20190;-68
2021/11/07 03:52:02;;;;;;;10.97;9.00;;;;;;;;;;5095215;28;20287;-68
2021/11/07 03:54:30;;;;;;;12.90;10.48;;;;;;;;;;5095429;28;20527;-69
2021/11/07 03:56:58;;;;;;;12.55;10.30;;;;;;;;;;5095451;28;20284;-68
2021/11/07 03:59:25;;;;;;;11.83;10.70;;;;;;;;;;5095617;28;20195;-69
2021/11/07 04:01:52;;;;;;;12.40;10.05;;;;;;;;;;5095857;28;20443;-68
2021/11/07 04:04:21;;;;;;;11.57;9.55;;;;;;;;;;5095026;28;20262;-68
2021/11/07 04:06:50;;;;;;;8.82;6.45;;;;;;;;;;5095671;28;20291;-69
2021/11/07 04:09:18;;;;;;;9.43;7.80;;;;;;;;;;5095029;28;20221;-68
2021/11/07 04:11:45;;;;;;;6.95;6.25;;;;;;;;;;5095004;28;20446;-68
2021/11/07 04:14:13;;;;;;;9.30;8.32;;;;;;;;;;5095086;28;20554;-69
2021/11/07 04:16:41;;;;;;;10.18;9.07;;;;;;;;;;5094702;28;20206;-68
2021/11/07 04:19:08;;;;;;;14.95;8.90;;;;;;;;;;5094906;28;20295;-69
2021/11/07 04:21:36;;;;;;;11.50;7.93;;;;;;;;;;5095294;28;20291;-69
2021/11/07 04:24:05;;;;;;;9.10;8.17;;;;;;;;;;5094632;28;20471;-70
2021/11/07 04:26:32;;;;;;;9.20;8.30;;;;;;;;;;5094593;28;20432;-69
2021/11/07 04:28:59;;;;;;;10.63;9.17;;;;;;;;;;5094232;28;20190;-69
2021/11/07 04:31:26;;;;;;;10.68;9.57;;;;;;;;;;5094581;28;20442;-69
2021/11/07 04:33:53;;;;;;;9.00;7.78;;;;;;;;;;5094126;28;20202;-70
2021/11/07 04:36:21;;;;;;;14.15;8.60;;;;;;;;;;5095069;28;20197;-69
2021/11/07 04:38:48;;;;;;;9.35;7.95;;;;;;;;;;5094489;28;20194;-69
2021/11/07 04:41:18;;;;;;;9.40;8.50;;;;;;;;;;5094442;28;20212;-70
2021/11/07 04:43:46;;;;;;;10.98;8.23;;;;;;;;;;5094351;28;20475;-70
2021/11/07 04:46:14;;;;;;;10.65;8.35;;;;;;;;;;5094518;28;20273;-69
2021/11/07 04:48:41;;;;;;;15.80;10.13;;;;;;;;;;5094781;28;20206;-69
2021/11/07 04:51:08;;;;;;;12.75;9.95;;;;;;;;;;5094077;28;20316;-69
2021/11/07 04:53:35;;;;;;;12.05;9.52;;;;;;;;;;5094621;28;20228;-69
2021/11/07 04:56:02;;;;;;;10.38;7.88;;;;;;;;;;5094155;28;20547;-70
2021/11/07 04:58:31;;;;;;;9.07;8.10;;;;;;;;;;5094285;28;20204;-70
2021/11/07 05:00:58;;;;;;;12.52;11.23;;;;;;;;;;5094108;28;20940;-69
2021/11/07 05:03:26;;;;;;;10.13;8.98;;;;;;;;;;5094359;28;20220;-69
2021/11/07 05:05:53;;;;;;;9.43;8.05;;;;;;;;;;5093632;28;20200;-69
2021/11/07 05:08:20;;;;;;;12.50;10.23;;;;;;;;;;5094022;28;20290;-69
2021/11/07 05:10:47;;;;;;;10.52;9.43;;;;;;;;;;5093706;28;20201;-69
2021/11/07 05:13:14;;;;;;;12.32;10.32;;;;;;;;;;5093589;28;20597;-70
2021/11/07 05:15:43;;;;;;;12.57;9.50;;;;;;;;;;5093558;28;20643;-70
2021/11/07 05:18:10;;;;;;;15.38;12.82;;;;;;;;;;5089759;28;20209;-69
2021/11/07 05:20:38;;;;;;;15.05;11.70;;;;;;;;;;5072240;28;20239;-69
2021/11/07 05:23:05;;;;;;;11.10;9.63;;;;;;;;;;5072905;28;20610;-69
2021/11/07 05:25:32;;;;;;;10.20;9.20;;;;;;;;;;5073648;28;20480;-70
2021/11/07 05:28:00;;;;;;;12.83;11.13;;;;;;;;;;5073515;28;20848;-70
2021/11/07 05:30:27;;;;;;;11.73;9.63;;;;;;;;;;5073429;28;20451;-70
2021/11/07 05:32:56;;;;;;;12.97;11.13;;;;;;;;;;5073715;28;20446;-69
2021/11/07 05:35:23;;;;;;;16.60;10.37;;;;;;;;;;5073235;28;20450;-69
2021/11/07 05:37:51;;;;;;;16.33;10.77;;;;;;;;;;5073716;28;20795;-69
2021/11/07 05:40:19;;;;;;;15.80;12.50;;;;;;;;;;5073475;28;20439;-69
2021/11/07 05:42:46;;;;;;;15.00;10.90;;;;;;;;;;5073249;28;20436;-69
2021/11/07 05:45:13;;;;;;;11.70;10.50;;;;;;;;;;5072985;28;20476;-70
2021/11/07 05:47:42;;;;;;;16.17;11.83;;;;;;;;;;5073235;28;20444;-69
2021/11/07 05:50:10;;;;;;;11.90;10.40;;;;;;;;;;5070595;28;21019;-70
2021/11/07 05:52:38;;;;;;;9.87;8.80;;;;;;;;;;5072702;28;20218;-70
2021/11/07 05:55:06;;;;;;;11.52;7.25;;;;;;;;;;5072556;28;20442;-68
2021/11/07 05:57:33;;;;;;;8.40;6.27;;;;;;;;;;5073554;28;20212;-69
2021/11/07 06:00:00;;;;;;;11.60;5.72;;;;;;;;;;5073209;28;20454;-68
2021/11/07 06:02:29;;;;;;;9.67;3.90;;;;;;;;;;5073046;28;20547;-69
2021/11/07 06:04:56;;;;;;;3.30;3.00;;;;;;;;;;5076337;28;20502;-68
2021/11/07 06:07:25;;;;;;;4.17;2.43;;;;;;;;;;5077017;28;20198;-68
2021/11/07 06:09:52;;;;;;;8.13;5.05;;;;;;;;;;5076411;28;20448;-67
2021/11/07 06:12:19;;;;;;;8.65;3.75;;;;;;;;;;5077573;28;20198;-68
2021/11/07 06:14:46;;;;;;;10.37;5.50;;;;;;;;;;5076919;28;20205;-67
2021/11/07 06:17:13;;;;;;;8.90;5.20;;;;;;;;;;5076972;28;20443;-68
2021/11/07 06:19:40;;;;;;;7.50;5.43;;;;;;;;;;5075084;28;20444;-67
2021/11/07 06:22:08;;;;;;;7.10;6.30;;;;;;;;;;5076652;28;20450;-69
2021/11/07 06:24:36;;;;;;;7.47;6.77;;;;;;;;;;5076139;28;20561;-68
2021/11/07 06:27:04;;;;;;;11.33;7.53;;;;;;;;;;5076778;28;20436;-68
2021/11/07 06:29:32;;;;;;;7.63;6.28;;;;;;;;;;5076420;28;20455;-68
2021/11/07 06:31:59;;;;;;;13.27;9.03;;;;;;;;;;5076316;28;20209;-68
2021/11/07 06:34:27;;;;;;;11.68;8.38;;;;;;;;;;5075924;28;20455;-68
2021/11/07 06:36:55;;;;;;;10.27;6.50;;;;;;;;;;5076142;28;20198;-68
2021/11/07 06:39:22;;;;;;;11.00;8.00;;;;;;;;;;5076494;28;20533;-68
2021/11/07 06:41:51;;;;;;;11.32;7.93;;;;;;;;;;5076183;28;20189;-68
2021/11/07 06:44:18;;;;;;;10.48;8.05;;;;;;;;;;5075407;28;20229;-67
2021/11/07 06:46:45;;;;;;;11.65;7.15;;;;;;;;;;5076550;28;20194;-67
2021/11/07 06:49:14;;;;;;;10.40;7.70;;;;;;;;;;5077162;28;20190;-67
2021/11/07 06:51:42;;;;;;;12.27;6.75;;;;;;;;;;5074873;28;20508;-67
2021/11/07 06:54:10;;;;;;;13.40;8.25;;;;;;;;;;5076068;28;20281;-68
2021/11/07 06:56:37;;;;;;;17.77;7.33;;;;;;;;;;5075861;28;20220;-67
2021/11/07 06:59:07;;;;;;;22.05;7.18;;;;;;;;;;5075786;28;20874;-68
2021/11/07 07:01:36;;;;;;;17.92;7.68;;;;;;;;;;5075924;28;20205;-75
2021/11/07 07:04:03;;;;;;;12.50;5.83;;;;;;;;;;5076101;28;20224;-68
2021/11/07 07:06:30;;;;;;;10.60;6.10;;;;;;;;;;5075482;28;20442;-68
2021/11/07 07:09:00;;;;;;;18.17;7.07;;;;;;;;;;5076127;28;20825;-68
2021/11/07 07:11:31;;;;;;;15.25;6.85;;;;;;;;;;5074997;28;20444;-67
2021/11/07 07:14:02;;;;;;;11.20;6.10;;;;;;;;;;5075372;28;20186;-67
2021/11/07 07:16:38;;;;;;;11.90;6.20;;;;;;;;;;5075729;28;20446;-67
2021/11/07 07:19:15;;;;;;;12.97;7.27;;;;;;;;;;5075188;28;20431;-68
2021/11/07 07:21:52;;;;;;;20.50;7.20;;;;;;;;;;5073431;28;20546;-67
2021/11/07 07:32:47;;;;;;;13.00;4.93;;;;;;;;;;5070162;28;20856;-67
2021/11/07 07:35:15;;;;;;;16.20;5.90;;;;;;;;;;5075473;28;20440;-67
2021/11/07 07:37:42;;;;;;;16.90;5.68;;;;;;;;;;5075463;28;20607;-68
2021/11/07 07:40:11;;;;;;;11.10;5.80;;;;;;;;;;5075359;28;20529;-67
2021/11/07 07:42:38;;;;;;;15.02;6.68;;;;;;;;;;5075083;28;20194;-67
2021/11/07 07:45:07;;;;;;;14.40;6.80;;;;;;;;;;5075546;28;20257;-67
2021/11/07 07:47:36;;;;;;;13.40;7.30;;;;;;;;;;5075184;28;20200;-67
2021/11/07 07:50:03;;;;;;;11.00;6.77;;;;;;;;;;5074898;28;20472;-68
2021/11/07 07:52:30;;;;;;;15.00;7.57;;;;;;;;;;5073346;28;20508;-69
2021/11/07 07:54:58;;;;;;;13.50;8.20;;;;;;;;;;5075091;28;20643;-67
2021/11/07 07:57:25;;;;;;;15.52;8.55;;;;;;;;;;5074443;28;20446;-68
2021/11/07 07:59:52;;;;;;;15.10;8.97;;;;;;;;;;5074674;28;20201;-68
2021/11/07 08:02:20;;;;;;;25.87;12.17;;;;;;;;;;5074972;28;20428;-68
2021/11/07 08:04:49;;;;;;;17.70;10.77;;;;;;;;;;5074384;28;20476;-68
2021/11/07 08:07:16;;;;;;;18.67;11.73;;;;;;;;;;5074112;28;20459;-68
2021/11/07 08:09:43;;;;;;;19.83;9.43;;;;;;;;;;5075035;28;20446;-68
2021/11/07 08:12:10;;;;;;;12.80;7.87;;;;;;;;;;5074951;28;20450;-67
2021/11/07 08:14:38;;;;;;;17.97;10.73;;;;;;;;;;5074498;28;20530;-67
2021/11/07 08:17:06;;;;;;;18.23;11.47;;;;;;;;;;5073979;28;20459;-68
2021/11/07 08:19:33;;;;;;;16.50;12.03;;;;;;;;;;5074562;28;20452;-68
2021/11/07 08:22:01;;;;;;;17.33;10.40;;;;;;;;;;5074128;28;20878;-68
2021/11/07 08:24:30;;;;;;;15.27;10.97;;;;;;;;;;5072731;28;20476;-67
2021/11/07 08:26:57;;;;;;;27.27;11.70;;;;;;;;;;5073297;28;20987;-67
2021/11/07 08:29:25;;;;;;;17.60;12.10;;;;;;;;;;5074337;28;20861;-68
2021/11/07 08:31:53;;;;;;;25.50;12.17;;;;;;;;;;5074011;28;20445;-68
2021/11/07 08:34:24;;;;;;;23.83;11.65;;;;;;;;;;5074076;28;20439;-68
2021/11/07 08:36:56;;;;;;;24.53;10.67;;;;;;;;;;5074427;28;20273;-67
2021/11/07 08:39:28;;;;;;;19.33;9.77;;;;;;;;;;5074413;28;20429;-67
2021/11/07 08:41:59;;;;;;;15.73;9.83;;;;;;;;;;5073989;28;20828;-68
2021/11/07 09:01:05;;;;;;;14.70;5.90;;;;;;;;;;5073794;28;20427;-69
2021/11/07 09:03:43;;;;;;;13.03;4.67;;;;;;;;;;5074268;28;20243;-69
2021/11/07 09:09:11;;;;;;;17.83;4.40;;;;;;;;;;5011842;28;20415;-69
2021/11/07 09:11:48;;;;;;;14.60;4.80;;;;;;;;;;5059850;28;20969;-69
2021/11/07 09:14:16;;;;;;;20.20;4.80;;;;;;;;;;5073972;28;20436;-69
2021/11/07 09:16:43;;;;;;;10.87;4.10;;;;;;;;;;5073397;28;20441;-69
2021/11/07 09:19:13;;;;;;;18.43;4.93;;;;;;;;;;5073131;28;20443;-69
2021/11/07 09:21:44;;;;;;;12.70;4.60;;;;;;;;;;5073050;28;20444;-69
2021/11/07 09:24:13;;;;;;;13.47;4.60;;;;;;;;;;5073427;28;20523;-70
2021/11/07 09:26:44;;;;;;;19.80;5.10;;;;;;;;;;5072014;28;20483;-69
2021/11/07 09:29:20;;;;;;;9.60;4.10;;;;;;;;;;5073366;28;20468;-69
2021/11/07 09:32:04;;;;;;;12.60;4.47;;;;;;;;;;5073136;28;20436;-69
2021/11/07 09:34:38;;;;;;;15.27;5.63;;;;;;;;;;5073275;28;20917;-69
2021/11/07 09:37:09;;;;;;;12.90;4.50;;;;;;;;;;5072513;28;20784;-70
2021/11/07 09:39:39;;;;;;;6.80;3.13;;;;;;;;;;5073095;28;20436;-69
2021/11/07 09:42:29;;;;;;;11.97;3.93;;;;;;;;;;5073017;28;20448;-69
2021/11/07 09:45:06;;;;;;;16.73;4.40;;;;;;;;;;5072767;28;20468;-69
2021/11/07 09:47:34;;;;;;;10.00;3.53;;;;;;;;;;5072776;28;20438;-70
2021/11/07 09:50:01;;;;;;;14.13;3.73;;;;;;;;;;5073453;28;20990;-71
2021/11/07 09:52:36;;;;;;;10.97;3.70;;;;;;;;;;5073853;28;20522;-70
2021/11/07 09:55:05;;;;;;;15.30;3.90;;;;;;;;;;5072408;28;20842;-70
2021/11/07 09:57:34;;;;;;;14.77;4.00;;;;;;;;;;5071315;28;20440;-70
2021/11/07 10:00:03;;;;;;;11.73;3.90;;;;;;;;;;5073506;28;20864;-69
2021/11/07 10:02:32;;;;;;;12.77;3.27;;;;;;;;;;5073238;28;20443;-69
2021/11/07 10:05:01;;;;;;;8.17;3.07;;;;;;;;;;5072625;28;20480;-70
2021/11/07 10:07:31;;;;;;;10.80;3.90;;;;;;;;;;5072467;28;20456;-69
2021/11/07 10:10:00;;;;;;;9.00;3.00;;;;;;;;;;5072855;28;20672;-70
2021/11/07 10:12:34;;;;;;;14.93;3.53;;;;;;;;;;5072766;28;20444;-70
2021/11/07 10:15:04;;;;;;;7.37;2.93;;;;;;;;;;5073379;28;20433;-70
2021/11/07 10:17:36;;;;;;;13.30;2.90;;;;;;;;;;5072354;28;20444;-70
2021/11/07 10:20:10;;;;;;;10.80;3.77;;;;;;;;;;5072519;28;20432;-70
2021/11/07 10:22:38;;;;;;;19.17;4.20;;;;;;;;;;5073731;28;20538;-70
2021/11/07 10:25:12;;;;;;;13.43;4.00;;;;;;;;;;5072371;28;20512;-71
2021/11/07 10:27:40;;;;;;;12.33;2.57;;;;;;;;;;5071205;28;20972;-70
2021/11/07 10:30:16;;;;;;;19.30;3.97;;;;;;;;;;5072665;28;20527;-70
2021/11/07 10:32:55;;;;;;;15.70;3.63;;;;;;;;;;5072235;28;20481;-70
2021/11/07 10:35:41;;;;;;;12.37;3.53;;;;;;;;;;5072642;28;20452;-71
2021/11/07 10:38:27;;;;;;;14.10;3.73;;;;;;;;;;5072611;28;20475;-71
2021/11/07 10:43:47;;;;;;;19.10;4.40;;;;;;;;;;5072409;28;20424;-70
2021/11/07 10:46:53;;;;;;;11.77;3.47;;;;;;;;;;5072907;28;20475;-71
2021/11/07 10:52:23;;;;;;;16.07;3.60;;;;;;;;;;5076245;28;20435;-72
2021/11/07 10:54:50;;;;;;;17.97;3.70;;;;;;;;;;5075335;28;20448;-71
2021/11/07 10:57:20;;;;;;;16.00;4.40;;;;;;;;;;5074925;28;20800;-70
2021/11/07 11:00:07;;;;;;;13.87;3.40;;;;;;;;;;5073576;28;20444;-70
2021/11/07 11:02:38;;;;;;;10.00;3.70;;;;;;;;;;5075631;28;20446;-70
2021/11/07 11:05:08;;;;;;;12.10;4.03;;;;;;;;;;5075628;28;20906;-71
2021/11/07 11:07:49;;;;;;;4.57;2.00;;;;;;;;;;5075971;28;20788;-71
2021/11/07 11:10:19;;;;;;;5.80;3.00;;;;;;;;;;5075245;28;20981;-71
2021/11/07 11:13:07;;;;;;;13.73;2.80;;;;;;;;;;5075406;28;20449;-71
2021/11/07 11:15:41;;;;;;;5.93;2.43;;;;;;;;;;5074816;28;20543;-71
2021/11/07 11:21:14;;;;;;;8.43;3.33;;;;;;;;;;5063058;28;20450;-71
2021/11/07 11:29:23;;;;;;;12.90;5.03;;;;;;;;;;5073318;28;20467;-71
2021/11/07 11:31:56;;;;;;;7.53;2.97;;;;;;;;;;5075332;28;20471;-73
2021/11/07 11:34:28;;;;;;;9.33;2.90;;;;;;;;;;5075645;28;20440;-71
2021/11/07 11:37:01;;;;;;;7.13;2.53;;;;;;;;;;5075245;28;20933;-72
2021/11/07 11:39:34;;;;;;;7.30;2.97;;;;;;;;;;5074982;28;20429;-73
2021/11/07 11:42:06;;;;;;;13.97;3.97;;;;;;;;;;5075385;28;20478;-73
2021/11/07 11:44:34;;;;;;;10.13;2.83;;;;;;;;;;5074780;28;20429;-73
2021/11/07 11:47:13;;;;;;;12.33;4.10;;;;;;;;;;5075508;28;20485;-72
2021/11/07 11:50:09;;;;;;;7.87;3.20;;;;;;;;;;5074979;28;20436;-72
2021/11/07 11:52:43;;;;;;;4.97;2.50;;;;;;;;;;5074962;28;20479;-72
2021/11/07 11:55:29;;;;;;;11.37;3.30;;;;;;;;;;5074789;28;20787;-73
2021/11/07 11:58:17;;;;;;;7.77;2.57;;;;;;;;;;5074724;28;20492;-72
2021/11/07 12:00:51;;;;;;;10.97;3.63;;;;;;;;;;5072335;28;20440;-73
2021/11/07 12:03:36;;;;;;;15.40;2.80;;;;;;;;;;5074772;28;20433;-73
2021/11/07 12:06:20;;;;;;;4.57;2.17;;;;;;;;;;5074468;28;20468;-73
2021/11/07 12:08:58;;;;;;;9.63;3.60;;;;;;;;;;5074718;28;20425;-72
2021/11/07 12:11:30;;;;;;;4.67;1.97;;;;;;;;;;5074806;28;20429;-73
2021/11/07 12:14:06;;;;;;;6.73;2.43;;;;;;;;;;5074790;28;20440;-72
2021/11/07 12:16:54;;;;;;;7.60;3.37;;;;;;;;;;5074339;28;20444;-73
2021/11/07 12:19:23;;;;;;;13.00;2.87;;;;;;;;;;5074488;28;20440;-72
2021/11/07 12:22:02;;;;;;;5.47;2.07;;;;;;;;;;5073992;28;20779;-72
2021/11/07 12:24:32;;;;;;;4.83;2.30;;;;;;;;;;5074717;28;20432;-72
2021/11/07 12:27:20;;;;;;;6.20;2.13;;;;;;;;;;5074853;28;20468;-72
2021/11/07 12:29:48;;;;;;;10.40;3.43;;;;;;;;;;5073586;28;20449;-72
2021/11/07 12:32:16;;;;;;;7.43;2.83;;;;;;;;;;5073413;28;20798;-72
2021/11/07 12:34:56;;;;;;;3.70;1.60;;;;;;;;;;5074255;28;20448;-72
2021/11/07 12:40:41;;;;;;;4.17;2.00;;;;;;;;;;5074137;28;20392;-72
2021/11/07 12:43:09;;;;;;;5.93;2.83;;;;;;;;;;5069069;28;20527;-71
2021/11/07 12:45:39;;;;;;;4.47;2.20;;;;;;;;;;5074162;28;20457;-71
2021/11/07 12:48:08;;;;;;;3.07;2.07;;;;;;;;;;5074304;28;20428;-70
2021/11/07 12:50:52;;;;;;;4.20;1.80;;;;;;;;;;5073026;28;20445;-72
2021/11/07 12:53:21;;;;;;;10.80;4.73;;;;;;;;;;5073717;28;20491;-71
2021/11/07 12:55:49;;;;;;;5.47;1.90;;;;;;;;;;5073986;28;20530;-72
2021/11/07 12:58:17;;;;;;;10.90;4.73;;;;;;;;;;5074329;28;20444;-71
2021/11/07 13:00:44;;;;;;;5.50;2.30;;;;;;;;;;5072707;28;20444;-72
2021/11/07 13:03:12;;;;;;;4.50;3.30;;;;;;;;;;5071892;28;20448;-71
2021/11/07 13:05:41;;;;;;;5.57;1.97;;;;;;;;;;5073595;28;20436;-71
2021/11/07 13:08:12;;;;;;;5.43;2.87;;;;;;;;;;5073536;28;20440;-71
2021/11/07 13:10:47;;;;;;;5.60;2.13;;;;;;;;;;5073456;28;20455;-71
2021/11/07 13:13:20;;;;;;;6.77;2.50;;;;;;;;;;5074084;28;20441;-71
2021/11/07 13:15:56;;;;;;;7.03;2.43;;;;;;;;;;5073993;28;20448;-72
2021/11/07 13:24:19;;;;;;;7.23;2.10;;;;;;;;;;5011341;28;20427;-71
2021/11/07 13:26:59;;;;;;;10.23;2.70;;;;;;;;;;5063095;28;20484;-71
2021/11/07 13:29:30;;;;;;;11.30;4.60;;;;;;;;;;5073994;28;20429;-71
2021/11/07 13:32:10;;;;;;;12.13;3.50;;;;;;;;;;5073192;28;20456;-71
2021/11/07 13:34:38;;;;;;;5.77;3.17;;;;;;;;;;5073155;28;20868;-71
2021/11/07 13:37:07;;;;;;;15.13;3.80;;;;;;;;;;5073397;28;20444;-71
2021/11/07 13:39:36;;;;;;;12.90;3.70;;;;;;;;;;5072913;28;20536;-72
2021/11/07 13:42:12;;;;;;;5.70;2.47;;;;;;;;;;5072413;28;20918;-72
2021/11/07 13:44:48;;;;;;;22.30;3.83;;;;;;;;;;5073336;28;20466;-72
2021/11/07 13:47:15;;;;;;;14.97;3.87;;;;;;;;;;5072988;28;21012;-71
2021/11/07 13:49:50;;;;;;;9.53;3.03;;;;;;;;;;5073218;28;20447;-71
2021/11/07 13:52:18;;;;;;;14.63;3.30;;;;;;;;;;5072836;28;20471;-70
2021/11/07 13:54:47;;;;;;;8.60;3.97;;;;;;;;;;5072279;28;20443;-71
2021/11/07 13:57:16;;;;;;;7.53;2.87;;;;;;;;;;5073103;28;20440;-73
2021/11/07 13:59:44;;;;;;;9.13;2.93;;;;;;;;;;5072981;28;20432;-72
2021/11/07 14:02:13;;;;;;;7.23;2.53;;;;;;;;;;5072030;28;20472;-71
2021/11/07 14:04:41;;;;;;;6.73;2.73;;;;;;;;;;5071611;28;20441;-71
2021/11/07 14:07:16;;;;;;;7.73;2.80;;;;;;;;;;5072980;28;20871;-72
2021/11/07 14:10:03;;;;;;;7.17;3.37;;;;;;;;;;5073058;28;20511;-72
2021/11/07 14:12:40;;;;;;;8.57;2.87;;;;;;;;;;5073171;28;20431;-71
2021/11/07 14:15:25;;;;;;;7.83;2.90;;;;;;;;;;5072999;28;20464;-75
2021/11/07 14:17:54;;;;;;;5.10;2.10;;;;;;;;;;5072708;28;20436;-72
2021/11/07 14:20:38;;;;;;;17.43;3.57;;;;;;;;;;5072319;28;20440;-72
2021/11/07 14:23:09;;;;;;;13.30;3.30;;;;;;;;;;5072023;28;20518;-71
2021/11/07 14:25:45;;;;;;;7.40;3.50;;;;;;;;;;5075750;28;20747;-72
2021/11/07 14:28:21;;;;;;;7.93;3.40;;;;;;;;;;5076877;28;20468;-72
2021/11/07 14:30:49;;;;;;;7.27;2.60;;;;;;;;;;5076682;28;20515;-72
2021/11/07 14:33:24;;;;;;;4.33;1.47;;;;;;;;;;5074011;28;20439;-71
2021/11/07 14:35:54;;;;;;;2.73;1.30;;;;;;;;;;5076100;28;20518;-72
2021/11/07 14:38:24;;;;;;;3.30;1.40;;;;;;;;;;5076505;28;20671;-72
2021/11/07 14:41:00;;;;;;;6.83;1.80;;;;;;;;;;5076177;28;20444;-73
2021/11/07 14:43:41;;;;;;;1.70;1.60;;;;;;;;;;5076288;28;20791;-72
2021/11/07 14:46:27;;;;;;;2.80;1.40;;;;;;;;;;5076336;28;20435;-71
2021/11/07 14:49:15;;;;;;;6.27;2.33;;;;;;;;;;5076559;28;20759;-73
2021/11/07 14:51:55;;;;;;;5.37;1.67;;;;;;;;;;5076530;28;20492;-72
2021/11/07 14:54:29;;;;;;;3.93;1.60;;;;;;;;;;5075953;28;20852;-71
2021/11/07 14:57:12;;;;;;;4.70;1.97;;;;;;;;;;5076927;28;20519;-71
2021/11/07 14:59:45;;;;;;;5.57;2.10;;;;;;;;;;5076028;28;20432;-69
2021/11/07 15:02:22;;;;;;;4.23;1.80;;;;;;;;;;5075846;28;20644;-71
2021/11/07 15:04:52;;;;;;;7.00;2.45;;;;;;;;;;5074552;28;20462;-68
2021/11/07 15:07:32;;;;;;;6.63;2.70;;;;;;;;;;5076190;28;20224;-68
2021/11/07 15:10:10;;;;;;;3.47;1.52;;;;;;;;;;5076256;28;20782;-69
2021/11/07 15:12:49;;;;;;;5.07;2.65;;;;;;;;;;5075738;28;20189;-69
2021/11/07 15:15:28;;;;;;;5.40;2.53;;;;;;;;;;5075849;28;20676;-68
2021/11/07 15:18:00;;;;;;;8.80;1.97;;;;;;;;;;5075740;28;20193;-70
2021/11/07 15:20:31;;;;;;;9.10;3.67;;;;;;;;;;5075732;28;20465;-67
2021/11/07 15:22:59;;;;;;;9.52;2.47;;;;;;;;;;5075390;28;20429;-68
2021/11/07 15:25:30;;;;;;;8.65;3.10;;;;;;;;;;5075472;28;20259;-68
2021/11/07 15:27:59;;;;;;;7.78;2.97;;;;;;;;;;5075708;28;20267;-69
2021/11/07 15:30:28;;;;;;;17.20;2.75;;;;;;;;;;5075260;28;20607;-69
2021/11/07 15:32:56;;;;;;;5.28;2.75;;;;;;;;;;5075353;28;20197;-69
2021/11/07 15:35:24;;;;;;;9.45;2.90;;;;;;;;;;5073804;28;20195;-69
2021/11/07 15:37:51;;;;;;;10.43;2.50;;;;;;;;;;5075421;28;20659;-69
2021/11/07 15:40:19;;;;;;;14.90;2.78;;;;;;;;;;5075431;28;20202;-69
2021/11/07 15:42:47;;;;;;;6.97;2.47;;;;;;;;;;5075365;28;20197;-68
2021/11/07 15:45:17;;;;;;;6.80;2.88;;;;;;;;;;5075016;28;20198;-69
2021/11/07 15:47:48;;;;;;;10.13;3.13;;;;;;;;;;5075094;28;20227;-68